Time;durP1;ratioP1;P1;durP2;ratioP2;P2;SDS_P1;SDS_P2;PMS_P1;PMS_P2;Temp;Humidity;BMP_temperature;BMP_pressure;BME280_temperature;BME280_humidity;BME280_pressure;Samples;Min_cycle;Max_cycle;Signal;HPM_P1;HPM_P2
2023/07/16 00:00:29;;;;;;;4.30;2.95;;;;;;;;;;2534052;23;20505;-93
2023/07/16 00:01:30;;;;;;;5.22;3.33;;;;;;;;;;2535252;23;19994;-93
2023/07/16 00:03:42;;;;;;;3.33;2.92;;;;;;;;;;2547120;23;20080;-95
2023/07/16 00:04:43;;;;;;;4.47;2.95;;;;;;;;;;2545097;23;20021;-94
2023/07/16 00:05:44;;;;;;;8.07;3.67;;;;;;;;;;2545211;23;20410;-95
2023/07/16 00:06:44;;;;;;;7.10;3.15;;;;;;;;;;2545109;23;20001;-94
2023/07/16 00:07:45;;;;;;;6.53;3.55;;;;;;;;;;2533057;23;20084;-94
2023/07/16 00:08:45;;;;;;;3.80;3.05;;;;;;;;;;2533093;23;20395;-95
2023/07/16 00:09:48;;;;;;;4.30;3.10;;;;;;;;;;2533836;23;20005;-95
2023/07/16 00:10:49;;;;;;;3.22;2.90;;;;;;;;;;2533765;23;19997;-95
2023/07/16 00:11:52;;;;;;;3.83;2.53;;;;;;;;;;2549156;23;20059;-94
2023/07/16 00:12:53;;;;;;;3.20;2.75;;;;;;;;;;2569060;23;20037;-95
2023/07/16 00:13:54;;;;;;;4.40;3.00;;;;;;;;;;2556909;23;20020;-94
2023/07/16 00:14:56;;;;;;;4.53;2.90;;;;;;;;;;2556742;23;20086;-94
2023/07/16 00:15:57;;;;;;;3.97;2.83;;;;;;;;;;2569094;23;20064;-96
2023/07/16 00:16:58;;;;;;;5.53;2.85;;;;;;;;;;2114395;23;10127469;-94
2023/07/16 00:17:58;;;;;;;4.47;2.88;;;;;;;;;;2557916;23;19993;-94
2023/07/16 00:18:59;;;;;;;4.72;3.20;;;;;;;;;;2571981;23;20124;-94
2023/07/16 00:19:59;;;;;;;4.38;3.00;;;;;;;;;;2573024;23;20004;-94
2023/07/16 00:21:00;;;;;;;6.30;3.03;;;;;;;;;;2555849;23;20037;-95
2023/07/16 00:22:00;;;;;;;3.85;3.10;;;;;;;;;;2556221;23;20084;-95
2023/07/16 00:23:08;;;;;;;3.97;3.10;;;;;;;;;;2568880;23;20019;-95
2023/07/16 00:24:09;;;;;;;4.18;2.95;;;;;;;;;;2545934;23;20473;-95
2023/07/16 00:25:09;;;;;;;5.38;2.60;;;;;;;;;;2535094;23;20006;-95
2023/07/16 00:26:10;;;;;;;3.30;3.00;;;;;;;;;;2537315;23;20013;-96
2023/07/16 00:27:10;;;;;;;5.43;2.47;;;;;;;;;;2533296;23;20002;-96
2023/07/16 00:28:11;;;;;;;4.07;2.90;;;;;;;;;;2532478;23;20455;-95
2023/07/16 00:29:12;;;;;;;4.38;2.95;;;;;;;;;;2533960;23;20028;-95
2023/07/16 00:30:12;;;;;;;5.63;3.28;;;;;;;;;;2555548;23;19998;-94
2023/07/16 00:31:13;;;;;;;3.60;2.75;;;;;;;;;;2556876;23;20033;-95
2023/07/16 00:32:13;;;;;;;4.63;3.13;;;;;;;;;;2541535;23;20084;-95
2023/07/16 00:33:16;;;;;;;4.82;2.88;;;;;;;;;;2539979;23;20126;-95
2023/07/16 00:34:22;;;;;;;4.47;3.20;;;;;;;;;;2539737;23;20001;-94
2023/07/16 00:35:22;;;;;;;3.10;2.47;;;;;;;;;;2553207;23;20009;-94
2023/07/16 00:36:23;;;;;;;4.00;3.03;;;;;;;;;;2563106;23;20438;-94
2023/07/16 00:37:26;;;;;;;4.15;2.90;;;;;;;;;;2546194;23;20333;-95
2023/07/16 00:38:26;;;;;;;3.58;3.28;;;;;;;;;;2550653;23;20514;-96
2023/07/16 00:39:28;;;;;;;2.85;2.63;;;;;;;;;;2545156;23;20000;-95
2023/07/16 00:40:37;;;;;;;3.90;2.94;;;;;;;;;;2463316;23;10286383;-95
2023/07/16 00:41:40;;;;;;;4.78;3.25;;;;;;;;;;2532824;23;20208;-95
2023/07/16 00:42:40;;;;;;;3.55;2.83;;;;;;;;;;2545914;23;19997;-94
2023/07/16 00:43:43;;;;;;;3.45;2.67;;;;;;;;;;2561782;23;20016;-95
2023/07/16 00:44:44;;;;;;;4.93;2.80;;;;;;;;;;2545018;23;20025;-95
2023/07/16 00:45:46;;;;;;;4.90;3.35;;;;;;;;;;2544972;23;19998;-94
2023/07/16 00:46:47;;;;;;;3.25;2.65;;;;;;;;;;2545093;23;20006;-95
2023/07/16 00:47:50;;;;;;;5.35;2.90;;;;;;;;;;2545031;23;19997;-94
2023/07/16 00:48:51;;;;;;;3.53;3.00;;;;;;;;;;2545605;23;20431;-94
2023/07/16 00:49:52;;;;;;;4.07;3.00;;;;;;;;;;2532864;23;19997;-95
2023/07/16 00:50:56;;;;;;;3.05;2.75;;;;;;;;;;2557623;23;20035;-94
2023/07/16 00:51:56;;;;;;;4.47;2.90;;;;;;;;;;2544921;23;20507;-95
2023/07/16 00:52:57;;;;;;;4.45;3.15;;;;;;;;;;2533206;23;20049;-95
2023/07/16 00:53:58;;;;;;;4.88;2.90;;;;;;;;;;2549295;23;20026;-95
2023/07/16 00:54:58;;;;;;;3.05;2.60;;;;;;;;;;2545114;23;20017;-95
2023/07/16 00:55:59;;;;;;;5.30;2.80;;;;;;;;;;2545173;23;20089;-95
2023/07/16 00:57:00;;;;;;;4.60;2.50;;;;;;;;;;2561689;23;20052;-94
2023/07/16 01:37:28;;;;;;;4.38;3.08;;;;;;;;;;2532254;23;20792;31
2023/07/16 01:38:29;;;;;;;5.03;2.95;;;;;;;;;;2520541;23;20011;-93
2023/07/16 01:39:34;;;;;;;3.72;2.85;;;;;;;;;;2520850;23;20002;-93
2023/07/16 01:40:35;;;;;;;3.58;2.78;;;;;;;;;;2536910;23;19998;-93
2023/07/16 01:41:35;;;;;;;2.97;2.78;;;;;;;;;;2532789;23;20002;-93
2023/07/16 01:42:38;;;;;;;4.28;3.08;;;;;;;;;;2520564;23;19995;-93
2023/07/16 01:43:42;;;;;;;5.20;2.97;;;;;;;;;;2525145;23;20440;-94
2023/07/16 01:44:43;;;;;;;2.67;2.40;;;;;;;;;;2532680;23;19998;-93
2023/07/16 01:46:06;;;;;;;3.17;2.72;;;;;;;;;;2533240;23;20084;-94
2023/07/16 01:47:10;;;;;;;3.95;3.00;;;;;;;;;;2520135;23;20045;-93
2023/07/16 01:48:39;;;;;;;4.85;2.88;;;;;;;;;;2521056;23;20017;-93
2023/07/16 01:49:46;;;;;;;2.97;2.70;;;;;;;;;;2520489;23;20065;-94
2023/07/16 01:50:47;;;;;;;3.95;2.80;;;;;;;;;;2520595;23;20510;-93
2023/07/16 01:51:47;;;;;;;4.47;2.97;;;;;;;;;;2508427;23;20058;-94
2023/07/16 01:52:48;;;;;;;3.65;3.08;;;;;;;;;;2508512;23;20090;-94
2023/07/16 01:53:49;;;;;;;4.28;3.15;;;;;;;;;;2520538;23;20470;-93
2023/07/16 01:54:49;;;;;;;3.45;3.15;;;;;;;;;;2537344;23;20030;-94
2023/07/16 01:55:50;;;;;;;5.97;2.78;;;;;;;;;;2537413;23;20002;-93
2023/07/16 01:56:50;;;;;;;4.38;3.22;;;;;;;;;;2532418;23;20482;-93
2023/07/16 01:57:51;;;;;;;6.50;3.53;;;;;;;;;;2520535;23;20001;-93
2023/07/16 01:58:52;;;;;;;5.03;3.45;;;;;;;;;;2524622;23;20070;-94
2023/07/16 01:59:53;;;;;;;4.55;3.00;;;;;;;;;;2520493;23;19995;-95
2023/07/16 02:00:55;;;;;;;4.80;3.20;;;;;;;;;;2524651;23;19999;-93
2023/07/16 02:01:55;;;;;;;6.20;3.08;;;;;;;;;;2537354;23;20024;-93
2023/07/16 02:02:56;;;;;;;5.70;3.10;;;;;;;;;;2537456;23;20084;-93
2023/07/16 02:03:56;;;;;;;4.38;3.20;;;;;;;;;;2532736;23;20001;-93
2023/07/16 02:04:57;;;;;;;7.45;3.47;;;;;;;;;;2532716;23;19998;-93
2023/07/16 02:05:57;;;;;;;6.07;3.00;;;;;;;;;;2524786;23;20078;-93
2023/07/16 02:06:58;;;;;;;4.40;3.15;;;;;;;;;;2532588;23;20088;-93
2023/07/16 02:07:58;;;;;;;4.43;3.10;;;;;;;;;;2534026;23;19998;-93
2023/07/16 02:08:59;;;;;;;4.65;3.05;;;;;;;;;;2532562;23;20093;-93
2023/07/16 02:09:59;;;;;;;4.10;3.65;;;;;;;;;;2520474;23;20045;-93
2023/07/16 02:10:59;;;;;;;3.47;2.88;;;;;;;;;;2521752;23;20093;-92
2023/07/16 02:12:00;;;;;;;4.80;2.88;;;;;;;;;;2536689;23;20002;-92
2023/07/16 02:13:01;;;;;;;4.43;2.90;;;;;;;;;;2520655;23;19998;-93
2023/07/16 02:14:04;;;;;;;3.40;3.10;;;;;;;;;;2520828;23;20038;-92
2023/07/16 02:15:05;;;;;;;4.18;2.90;;;;;;;;;;2520643;23;20041;-92
2023/07/16 02:16:06;;;;;;;6.03;3.17;;;;;;;;;;2509926;23;20006;-93
2023/07/16 02:17:07;;;;;;;3.80;2.88;;;;;;;;;;2509727;23;20081;-93
2023/07/16 02:18:07;;;;;;;4.38;3.30;;;;;;;;;;2522066;23;20005;-92
2023/07/16 02:19:08;;;;;;;5.13;3.65;;;;;;;;;;2534275;23;19994;-92
2023/07/16 02:20:10;;;;;;;7.95;3.80;;;;;;;;;;2521356;23;20448;-92
2023/07/16 02:21:10;;;;;;;4.70;3.63;;;;;;;;;;2521365;23;20007;-91
2023/07/16 02:22:11;;;;;;;4.28;3.00;;;;;;;;;;2537752;23;20049;-92
2023/07/16 02:23:11;;;;;;;5.07;3.80;;;;;;;;;;2538006;23;19994;-92
2023/07/16 02:24:12;;;;;;;4.10;2.83;;;;;;;;;;2537313;23;20073;-93
2023/07/16 02:25:13;;;;;;;5.43;3.70;;;;;;;;;;2533533;23;20026;-94
2023/07/16 02:26:13;;;;;;;5.65;3.63;;;;;;;;;;2537486;23;20057;-95
2023/07/16 02:27:14;;;;;;;6.28;3.70;;;;;;;;;;2532821;23;20009;-95
2023/07/16 02:28:14;;;;;;;5.63;3.60;;;;;;;;;;2532733;23;19998;-95
2023/07/16 02:29:20;;;;;;;4.45;3.70;;;;;;;;;;2520496;23;20032;-93
2023/07/16 02:30:21;;;;;;;6.13;3.60;;;;;;;;;;2522715;23;19999;-92
2023/07/16 02:31:22;;;;;;;7.22;3.60;;;;;;;;;;2520863;23;19995;-93
2023/07/16 02:32:27;;;;;;;5.50;3.50;;;;;;;;;;2534384;23;19998;-92
2023/07/16 02:33:28;;;;;;;5.85;3.47;;;;;;;;;;2546590;23;19993;-93
2023/07/16 02:34:29;;;;;;;5.13;3.30;;;;;;;;;;2529398;23;19998;-93
2023/07/16 02:35:29;;;;;;;5.00;3.80;;;;;;;;;;2524936;23;20114;-93
2023/07/16 02:36:30;;;;;;;6.35;3.60;;;;;;;;;;2538687;23;20070;-93
2023/07/16 02:37:30;;;;;;;3.92;3.55;;;;;;;;;;2531971;23;20014;-93
2023/07/16 02:38:31;;;;;;;6.20;3.70;;;;;;;;;;2531877;23;20002;-94
2023/07/16 02:39:32;;;;;;;4.30;3.90;;;;;;;;;;2110451;23;10212903;-95
2023/07/16 02:40:34;;;;;;;7.03;4.00;;;;;;;;;;2510666;23;19998;-94
2023/07/16 02:41:36;;;;;;;5.78;3.65;;;;;;;;;;2508941;23;20017;-95
2023/07/16 02:42:39;;;;;;;4.90;3.95;;;;;;;;;;2509009;23;20085;-95
2023/07/16 02:43:40;;;;;;;4.57;3.38;;;;;;;;;;2525135;23;20439;-95
2023/07/16 02:44:44;;;;;;;4.30;3.78;;;;;;;;;;2537186;23;20021;-94
2023/07/16 02:45:45;;;;;;;9.90;3.97;;;;;;;;;;2520272;23;20078;-94
2023/07/16 02:46:45;;;;;;;4.47;3.85;;;;;;;;;;2520694;23;20002;-95
2023/07/16 02:47:46;;;;;;;5.05;3.40;;;;;;;;;;2520698;23;20371;-94
2023/07/16 02:48:46;;;;;;;6.35;3.70;;;;;;;;;;2524636;23;20017;-95
2023/07/16 02:49:47;;;;;;;6.30;3.55;;;;;;;;;;2532492;23;20129;-95
2023/07/16 02:50:47;;;;;;;6.20;3.78;;;;;;;;;;2534186;23;20006;-94
2023/07/16 02:51:48;;;;;;;4.90;3.67;;;;;;;;;;2520418;23;20081;-95
2023/07/16 02:52:51;;;;;;;7.85;3.72;;;;;;;;;;2520454;23;20025;-95
2023/07/16 02:53:51;;;;;;;4.57;3.58;;;;;;;;;;2536611;23;20148;-92
2023/07/16 02:54:52;;;;;;;4.13;3.35;;;;;;;;;;2537504;23;19994;-94
2023/07/16 02:55:55;;;;;;;7.40;3.95;;;;;;;;;;2520433;23;20033;-94
2023/07/16 02:56:55;;;;;;;7.10;3.70;;;;;;;;;;2508764;23;20136;-94
2023/07/16 02:57:56;;;;;;;6.78;3.70;;;;;;;;;;2520357;23;19998;-94
2023/07/16 02:58:56;;;;;;;5.22;3.60;;;;;;;;;;2508498;23;20449;-96
2023/07/16 02:59:57;;;;;;;4.15;3.67;;;;;;;;;;2520490;23;19998;-95
2023/07/16 03:00:57;;;;;;;4.90;3.67;;;;;;;;;;2532442;23;20089;-95
2023/07/16 03:01:58;;;;;;;4.55;3.72;;;;;;;;;;2532657;23;20085;-94
2023/07/16 03:02:59;;;;;;;5.95;4.03;;;;;;;;;;2520445;23;20411;-95
2023/07/16 03:04:00;;;;;;;5.88;3.95;;;;;;;;;;2519348;23;20189;-95
2023/07/16 03:05:00;;;;;;;7.28;3.80;;;;;;;;;;2520456;23;20067;-95
2023/07/16 03:06:05;;;;;;;5.05;3.50;;;;;;;;;;2532336;23;20036;-95
2023/07/16 03:07:05;;;;;;;4.25;3.20;;;;;;;;;;2509341;23;20011;-94
2023/07/16 03:08:08;;;;;;;5.63;3.97;;;;;;;;;;2509055;23;20026;-95
2023/07/16 03:09:08;;;;;;;5.40;3.90;;;;;;;;;;2521583;23;19994;-94
2023/07/16 03:10:10;;;;;;;4.20;3.80;;;;;;;;;;2521228;23;20034;-94
2023/07/16 03:11:10;;;;;;;4.78;3.60;;;;;;;;;;2525537;23;19994;-96
2023/07/16 03:12:11;;;;;;;5.03;4.00;;;;;;;;;;2538160;23;20064;-96
2023/07/16 03:13:14;;;;;;;5.07;3.47;;;;;;;;;;2509405;23;20011;-92
2023/07/16 03:14:15;;;;;;;5.40;3.63;;;;;;;;;;2510060;23;20119;-95
2023/07/16 03:15:17;;;;;;;4.20;3.65;;;;;;;;;;2533792;23;20025;-95
2023/07/16 03:16:18;;;;;;;4.68;3.70;;;;;;;;;;2533676;23;20077;-93
2023/07/16 03:17:18;;;;;;;4.65;3.50;;;;;;;;;;2521665;23;20043;-94
2023/07/16 03:18:19;;;;;;;4.43;3.40;;;;;;;;;;2525092;23;20085;-95
2023/07/16 03:19:20;;;;;;;5.18;3.60;;;;;;;;;;2538189;23;19990;-93
2023/07/16 03:20:20;;;;;;;4.97;4.00;;;;;;;;;;2538372;23;20012;-94
2023/07/16 03:21:25;;;;;;;6.75;4.30;;;;;;;;;;2521025;23;20136;-95
2023/07/16 03:22:26;;;;;;;6.20;3.25;;;;;;;;;;2526286;23;19995;-95
2023/07/16 03:23:28;;;;;;;6.05;3.95;;;;;;;;;;2538171;23;20005;-94
2023/07/16 03:24:29;;;;;;;5.68;4.15;;;;;;;;;;2538079;23;19989;-94
2023/07/16 03:25:29;;;;;;;5.32;4.55;;;;;;;;;;2521073;23;20029;-94
2023/07/16 03:26:30;;;;;;;7.15;4.25;;;;;;;;;;2525307;23;20404;-95
2023/07/16 03:27:31;;;;;;;7.13;3.65;;;;;;;;;;2537963;23;20043;-95
2023/07/16 03:28:31;;;;;;;10.90;3.92;;;;;;;;;;2537825;23;20057;-94
2023/07/16 03:29:35;;;;;;;8.38;3.65;;;;;;;;;;2533234;23;19994;-95
2023/07/16 03:30:37;;;;;;;4.35;3.72;;;;;;;;;;2537336;23;19993;-95
2023/07/16 03:31:37;;;;;;;5.70;3.90;;;;;;;;;;2521169;23;20029;-94
2023/07/16 03:32:38;;;;;;;5.13;3.50;;;;;;;;;;2521290;23;19994;-94
2023/07/16 03:33:38;;;;;;;5.35;3.90;;;;;;;;;;2537503;23;20005;-96
2023/07/16 03:34:39;;;;;;;6.00;3.58;;;;;;;;;;2538035;23;20504;-95
2023/07/16 03:35:41;;;;;;;4.40;3.65;;;;;;;;;;2533359;23;20017;-94
2023/07/16 03:36:42;;;;;;;4.28;3.88;;;;;;;;;;2521262;23;19995;-93
2023/07/16 03:37:42;;;;;;;4.78;4.00;;;;;;;;;;2520960;23;20025;-94
2023/07/16 03:38:46;;;;;;;6.35;3.63;;;;;;;;;;2533102;23;19998;-94
2023/07/16 03:39:48;;;;;;;4.35;3.70;;;;;;;;;;2521389;23;19999;-93
2023/07/16 03:40:50;;;;;;;4.53;3.60;;;;;;;;;;2525454;23;20409;-93
2023/07/16 03:41:51;;;;;;;5.03;4.00;;;;;;;;;;2533138;23;19998;-94
2023/07/16 03:42:53;;;;;;;4.78;4.05;;;;;;;;;;2521405;23;20077;-93
2023/07/16 03:43:54;;;;;;;6.57;4.22;;;;;;;;;;2509412;23;20013;-95
2023/07/16 03:44:54;;;;;;;5.20;3.90;;;;;;;;;;2520989;23;20351;-93
2023/07/16 03:45:55;;;;;;;6.28;3.40;;;;;;;;;;2537316;23;20435;-93
2023/07/16 03:46:58;;;;;;;3.53;3.22;;;;;;;;;;2532989;23;20070;-92
2023/07/16 03:47:59;;;;;;;4.82;3.75;;;;;;;;;;2521155;23;19998;-94
2023/07/16 03:49:00;;;;;;;8.57;4.03;;;;;;;;;;2525335;23;20054;-94
2023/07/16 03:50:04;;;;;;;5.45;3.75;;;;;;;;;;2538106;23;19994;-93
2023/07/16 03:51:04;;;;;;;4.38;3.45;;;;;;;;;;2521375;23;20002;-94
2023/07/16 03:52:05;;;;;;;6.85;3.85;;;;;;;;;;2533233;23;19994;-93
2023/07/16 03:53:06;;;;;;;5.00;3.97;;;;;;;;;;2537670;23;20021;-94
2023/07/16 03:54:09;;;;;;;4.47;3.58;;;;;;;;;;2533121;23;20069;-95
2023/07/16 03:55:15;;;;;;;5.60;3.85;;;;;;;;;;2521254;23;20412;-95
2023/07/16 03:56:15;;;;;;;3.78;3.28;;;;;;;;;;2526334;23;20021;-94
2023/07/16 03:57:27;;;;;;;5.45;3.90;;;;;;;;;;2521275;23;20050;-95
2023/07/16 03:58:29;;;;;;;5.45;4.00;;;;;;;;;;2538597;23;19993;-95
2023/07/16 03:59:30;;;;;;;5.75;4.40;;;;;;;;;;2544605;23;20006;-94
2023/07/16 04:00:31;;;;;;;5.10;4.00;;;;;;;;;;2520451;23;20011;-94
2023/07/16 04:01:32;;;;;;;6.30;3.55;;;;;;;;;;2520575;23;20002;-94
2023/07/16 04:02:37;;;;;;;6.45;3.55;;;;;;;;;;2535814;23;20002;-96
2023/07/16 04:03:38;;;;;;;3.70;3.40;;;;;;;;;;2539849;23;20423;-95
2023/07/16 04:04:40;;;;;;;4.93;3.55;;;;;;;;;;2522841;23;20057;-94
2023/07/16 04:05:40;;;;;;;7.70;4.10;;;;;;;;;;2522546;23;20005;-95
2023/07/16 04:06:41;;;;;;;5.35;4.22;;;;;;;;;;2521895;23;20018;-95
2023/07/16 04:07:47;;;;;;;7.47;3.70;;;;;;;;;;2509638;23;20177;-95
2023/07/16 04:08:47;;;;;;;6.38;3.55;;;;;;;;;;2522504;23;20003;-95
2023/07/16 04:09:48;;;;;;;6.68;4.10;;;;;;;;;;2533530;23;20455;-95
2023/07/16 04:10:48;;;;;;;6.70;4.10;;;;;;;;;;2533451;23;20013;-94
2023/07/16 04:11:49;;;;;;;3.92;3.50;;;;;;;;;;2521519;23;20089;-95
2023/07/16 04:12:49;;;;;;;5.68;3.75;;;;;;;;;;2521262;23;20028;-93
2023/07/16 04:13:50;;;;;;;9.38;4.38;;;;;;;;;;2521355;23;19998;-94
2023/07/16 04:14:55;;;;;;;4.00;3.58;;;;;;;;;;2521068;23;20029;-94
2023/07/16 04:15:57;;;;;;;5.45;3.28;;;;;;;;;;2530799;23;20045;-95
2023/07/16 04:16:58;;;;;;;7.50;4.05;;;;;;;;;;2532601;23;19998;-93
2023/07/16 04:17:58;;;;;;;4.50;3.65;;;;;;;;;;2532544;23;19994;-93
2023/07/16 04:18:59;;;;;;;7.68;3.83;;;;;;;;;;2548721;23;19996;-94
2023/07/16 04:19:59;;;;;;;4.07;3.08;;;;;;;;;;2544536;23;20030;-94
2023/07/16 04:21:00;;;;;;;4.82;3.38;;;;;;;;;;2543325;23;20075;-94
2023/07/16 04:22:06;;;;;;;7.75;3.78;;;;;;;;;;2522451;23;19994;-94
2023/07/16 04:23:06;;;;;;;4.78;3.67;;;;;;;;;;2528021;23;20022;-93
2023/07/16 04:24:07;;;;;;;7.05;3.30;;;;;;;;;;2523112;23;20017;-95
2023/07/16 04:25:07;;;;;;;5.95;3.90;;;;;;;;;;2510360;23;20034;-93
2023/07/16 04:26:08;;;;;;;4.32;3.17;;;;;;;;;;2509698;23;20335;-95
2023/07/16 04:27:11;;;;;;;5.38;3.35;;;;;;;;;;2525699;23;19994;-94
2023/07/16 04:28:12;;;;;;;3.70;3.35;;;;;;;;;;2533284;23;20065;-93
2023/07/16 04:29:12;;;;;;;5.70;3.58;;;;;;;;;;2533846;23;20046;-94
2023/07/16 04:30:13;;;;;;;4.38;3.33;;;;;;;;;;2509245;23;20429;-94
2023/07/16 04:31:14;;;;;;;5.20;3.17;;;;;;;;;;2521160;23;20365;-94
2023/07/16 04:32:14;;;;;;;4.75;3.88;;;;;;;;;;2110946;23;9999781;-95
2023/07/16 04:33:15;;;;;;;4.13;3.20;;;;;;;;;;2533341;23;19994;-93
2023/07/16 04:34:15;;;;;;;5.43;3.22;;;;;;;;;;2532984;23;20030;-94
2023/07/16 04:35:16;;;;;;;3.50;3.17;;;;;;;;;;2533008;23;19986;-94
2023/07/16 04:38:15;;;;;;;3.45;3.15;;;;;;;;;;2535688;23;20006;-94
2023/07/16 04:39:16;;;;;;;4.15;3.10;;;;;;;;;;2536922;23;20006;-95
2023/07/16 04:40:28;;;;;;;4.75;3.13;;;;;;;;;;2532910;23;20367;-95
2023/07/16 04:41:29;;;;;;;4.45;3.20;;;;;;;;;;2530574;23;20081;-93
2023/07/16 04:42:29;;;;;;;3.88;3.53;;;;;;;;;;2508520;23;20348;-94
2023/07/16 04:43:30;;;;;;;3.88;2.90;;;;;;;;;;2520928;23;20329;-95
2023/07/16 04:44:30;;;;;;;4.45;3.28;;;;;;;;;;2537207;23;20024;-94
2023/07/16 04:45:31;;;;;;;5.05;3.03;;;;;;;;;;2520912;23;20467;-95
2023/07/16 04:46:33;;;;;;;3.53;2.75;;;;;;;;;;2525127;23;19990;-93
2023/07/16 04:47:34;;;;;;;4.30;3.58;;;;;;;;;;2533505;23;20010;-94
2023/07/16 04:48:35;;;;;;;4.68;2.85;;;;;;;;;;2533303;23;20187;-93
2023/07/16 04:49:38;;;;;;;4.38;2.60;;;;;;;;;;2533143;23;20281;-95
2023/07/16 04:50:39;;;;;;;3.72;2.42;;;;;;;;;;2533017;23;19998;-94
2023/07/16 04:51:39;;;;;;;3.85;3.08;;;;;;;;;;2533001;23;20034;-94
2023/07/16 04:52:43;;;;;;;4.93;3.00;;;;;;;;;;2532877;23;20073;-95
2023/07/16 04:53:43;;;;;;;5.00;2.80;;;;;;;;;;2520861;23;20197;-94
2023/07/16 04:54:44;;;;;;;;;;;;;;;;;;2094992;23;10174786;-94
2023/07/16 04:55:45;;;;;;;3.05;2.47;;;;;;;;;;2532815;23;19916;-94
2023/07/16 04:56:48;;;;;;;3.65;2.67;;;;;;;;;;2532933;23;19993;-94
2023/07/16 04:57:53;;;;;;;3.28;2.40;;;;;;;;;;2533596;23;19993;-95
2023/07/16 04:58:56;;;;;;;4.88;2.85;;;;;;;;;;2532331;23;20056;-92
2023/07/16 04:59:59;;;;;;;2.85;2.55;;;;;;;;;;2520879;23;19995;-94
2023/07/16 05:01:00;;;;;;;6.20;2.85;;;;;;;;;;2532913;23;20029;-94
2023/07/16 05:02:06;;;;;;;2.88;2.60;;;;;;;;;;2534583;23;20013;-94
2023/07/16 05:03:06;;;;;;;5.97;3.17;;;;;;;;;;2537123;23;20397;-93
2023/07/16 05:04:09;;;;;;;3.00;2.70;;;;;;;;;;2520884;23;20074;-93
2023/07/16 05:05:10;;;;;;;3.83;2.80;;;;;;;;;;2509210;23;20066;-94
2023/07/16 05:06:10;;;;;;;3.22;2.90;;;;;;;;;;2509058;23;19998;-96
2023/07/16 05:07:11;;;;;;;3.92;2.67;;;;;;;;;;2520845;23;20125;-95
2023/07/16 05:08:11;;;;;;;5.63;3.88;;;;;;;;;;2520994;23;20053;-95
2023/07/16 05:09:12;;;;;;;5.60;2.88;;;;;;;;;;2520607;23;20024;-94
2023/07/16 05:10:12;;;;;;;5.53;3.20;;;;;;;;;;2532568;23;20002;-94
2023/07/16 05:11:13;;;;;;;3.78;3.10;;;;;;;;;;2524928;23;20006;-95
2023/07/16 05:12:13;;;;;;;7.18;3.50;;;;;;;;;;2520497;23;19991;-95
2023/07/16 05:13:15;;;;;;;3.50;2.72;;;;;;;;;;2520482;23;20352;-94
2023/07/16 05:14:17;;;;;;;6.70;3.40;;;;;;;;;;2520386;23;19994;-95
2023/07/16 05:15:18;;;;;;;5.57;4.30;;;;;;;;;;2520646;23;20531;-94
2023/07/16 05:16:19;;;;;;;5.28;4.38;;;;;;;;;;2520852;23;20046;-95
2023/07/16 05:17:19;;;;;;;6.38;4.45;;;;;;;;;;2508520;23;20393;-95
2023/07/16 05:18:21;;;;;;;6.32;4.25;;;;;;;;;;2524075;23;19998;-94
2023/07/16 05:19:22;;;;;;;5.50;4.05;;;;;;;;;;2537544;23;20028;-95
2023/07/16 05:20:23;;;;;;;5.40;3.72;;;;;;;;;;2532993;23;20029;-95
2023/07/16 05:21:23;;;;;;;5.20;3.78;;;;;;;;;;2520731;23;20021;-96
2023/07/16 05:22:24;;;;;;;4.28;3.63;;;;;;;;;;2508798;23;20325;-94
2023/07/16 05:23:24;;;;;;;5.93;3.50;;;;;;;;;;2524404;23;20104;-95
2023/07/16 05:24:28;;;;;;;4.07;3.53;;;;;;;;;;2519822;23;19994;-94
2023/07/16 05:25:28;;;;;;;4.38;3.80;;;;;;;;;;2525307;23;20389;-94
2023/07/16 05:26:33;;;;;;;4.72;3.22;;;;;;;;;;2532681;23;20072;-94
2023/07/16 05:27:35;;;;;;;4.55;2.88;;;;;;;;;;2537609;23;20407;-93
2023/07/16 05:28:43;;;;;;;5.65;3.50;;;;;;;;;;2523360;23;20406;-94
2023/07/16 05:29:43;;;;;;;4.60;3.00;;;;;;;;;;2524257;23;20346;-94
2023/07/16 05:30:44;;;;;;;2.97;2.63;;;;;;;;;;2532681;23;20002;-94
2023/07/16 05:31:46;;;;;;;5.68;2.90;;;;;;;;;;2532373;23;20005;-94
2023/07/16 05:32:46;;;;;;;4.25;2.60;;;;;;;;;;2524998;23;20005;-96
2023/07/16 05:33:47;;;;;;;6.20;3.40;;;;;;;;;;2532625;23;20343;-94
2023/07/16 05:34:47;;;;;;;5.50;3.00;;;;;;;;;;2520830;23;19994;-96
2023/07/16 05:35:59;;;;;;;3.53;2.28;;;;;;;;;;2508976;23;20082;-96
2023/07/16 05:37:01;;;;;;;5.05;2.20;;;;;;;;;;2527883;23;20012;-93
2023/07/16 05:38:11;;;;;;;3.10;2.42;;;;;;;;;;2517881;23;20037;-94
2023/07/16 06:01:50;;;;;;;3.00;2.63;;;;;;;;;;2544643;23;20029;-95
2023/07/16 06:02:50;;;;;;;3.65;2.42;;;;;;;;;;2532643;23;20375;-94
2023/07/16 06:03:50;;;;;;;2.42;2.20;;;;;;;;;;2536964;23;20004;-94
2023/07/16 06:04:51;;;;;;;2.40;2.17;;;;;;;;;;2532892;23;20001;-95
2023/07/16 06:05:54;;;;;;;8.38;2.40;;;;;;;;;;2532945;23;20002;-95
2023/07/16 06:06:56;;;;;;;2.47;1.98;;;;;;;;;;2537442;23;20419;-94
2023/07/16 06:07:56;;;;;;;3.40;2.30;;;;;;;;;;2533032;23;19998;-94
2023/07/16 06:08:59;;;;;;;4.18;2.53;;;;;;;;;;2520517;23;20003;-93
2023/07/16 06:10:02;;;;;;;3.05;2.15;;;;;;;;;;2532720;23;20077;-94
2023/07/16 06:11:05;;;;;;;3.65;2.15;;;;;;;;;;2521031;23;20345;-93
2023/07/16 06:12:06;;;;;;;6.60;5.10;;;;;;;;;;2521078;23;20017;-93
2023/07/16 06:13:06;;;;;;;2.85;2.33;;;;;;;;;;2524434;23;19999;-95
2023/07/16 06:14:12;;;;;;;4.25;3.10;;;;;;;;;;2537674;23;19994;-93
2023/07/16 06:15:29;;;;;;;2.15;1.90;;;;;;;;;;2536906;23;19990;-96
2023/07/16 06:16:33;;;;;;;4.30;2.58;;;;;;;;;;2540532;23;20048;-95
2023/07/16 06:17:33;;;;;;;3.28;2.28;;;;;;;;;;2532857;23;19998;-93
2023/07/16 06:18:36;;;;;;;3.67;2.28;;;;;;;;;;2537772;23;20022;-96
2023/07/16 06:19:37;;;;;;;2.88;2.25;;;;;;;;;;2532721;23;20005;-94
2023/07/16 06:20:37;;;;;;;3.42;1.67;;;;;;;;;;2537144;23;20470;-95
2023/07/16 06:21:40;;;;;;;2.90;2.10;;;;;;;;;;2550302;23;20021;-96
2023/07/16 06:22:41;;;;;;;3.47;2.25;;;;;;;;;;2549784;23;20052;-96
2023/07/16 06:23:42;;;;;;;3.40;2.15;;;;;;;;;;2549605;23;20342;-96
2023/07/16 06:24:42;;;;;;;3.83;2.10;;;;;;;;;;2532423;23;20432;-95
2023/07/16 06:25:54;;;;;;;3.95;2.22;;;;;;;;;;2536559;23;20016;-95
2023/07/16 06:27:07;;;;;;;3.05;2.40;;;;;;;;;;2532185;23;20050;-95
2023/07/16 06:28:07;;;;;;;2.67;2.45;;;;;;;;;;2527059;23;20452;-94
2023/07/16 06:29:08;;;;;;;2.63;1.90;;;;;;;;;;2533018;23;20077;-94
2023/07/16 06:30:33;;;;;;;3.88;2.00;;;;;;;;;;2533268;23;20348;-95
2023/07/16 06:31:45;;;;;;;2.72;2.22;;;;;;;;;;2525886;23;20033;-94
2023/07/16 06:32:48;;;;;;;2.83;2.25;;;;;;;;;;2532968;23;20060;-96
2023/07/16 06:33:51;;;;;;;4.00;2.17;;;;;;;;;;2536841;23;20004;-95
2023/07/16 06:34:54;;;;;;;7.97;2.92;;;;;;;;;;2532550;23;20046;-95
2023/07/16 06:35:54;;;;;;;3.83;2.28;;;;;;;;;;2532460;23;20052;-96
2023/07/16 06:37:23;;;;;;;3.38;2.20;;;;;;;;;;2520207;23;19995;-96
2023/07/16 06:38:24;;;;;;;2.53;1.90;;;;;;;;;;2543105;23;19994;-95
2023/07/16 06:39:24;;;;;;;3.90;2.13;;;;;;;;;;2549478;23;19993;-93
2023/07/16 06:40:32;;;;;;;2.58;2.00;;;;;;;;;;2549655;23;19993;-95
2023/07/16 06:41:35;;;;;;;2.63;2.15;;;;;;;;;;2532784;23;20001;-94
2023/07/16 06:42:36;;;;;;;4.30;2.40;;;;;;;;;;2520592;23;20057;-96
2023/07/16 06:43:46;;;;;;;4.85;2.00;;;;;;;;;;2520286;23;20073;-95
2023/07/16 06:44:49;;;;;;;2.20;1.73;;;;;;;;;;2538623;23;20396;-95
2023/07/16 06:45:50;;;;;;;5.15;2.22;;;;;;;;;;2532484;23;20360;-95
2023/07/16 06:46:51;;;;;;;3.53;2.10;;;;;;;;;;2536347;23;20021;-95
2023/07/16 06:47:51;;;;;;;2.58;2.20;;;;;;;;;;2532173;23;20304;-95
2023/07/16 06:48:52;;;;;;;2.72;1.90;;;;;;;;;;2536752;23;20056;-96
2023/07/16 06:50:00;;;;;;;1.83;1.70;;;;;;;;;;2531977;23;20486;-94
2023/07/16 06:51:00;;;;;;;2.70;2.10;;;;;;;;;;2521518;23;20010;-94
2023/07/16 06:52:04;;;;;;;4.80;1.98;;;;;;;;;;2536636;23;20072;-94
2023/07/16 07:15:45;;;;;;;1.75;1.65;;;;;;;;;;2459307;24;20017;-96
2023/07/16 07:16:48;;;;;;;2.40;1.60;;;;;;;;;;2461844;24;20057;-94
2023/07/16 07:18:05;;;;;;;2.38;1.60;;;;;;;;;;2450588;24;20027;-95
2023/07/16 07:19:13;;;;;;;1.35;1.25;;;;;;;;;;2503795;23;20059;-93
2023/07/16 07:22:14;;;;;;;1.63;1.52;;;;;;;;;;2484530;23;20012;-94
2023/07/16 07:27:07;;;;;;;3.28;1.67;;;;;;;;;;2488702;23;20019;-94
2023/07/16 07:28:08;;;;;;;1.90;1.65;;;;;;;;;;2501090;23;20011;-95
2023/07/16 07:29:08;;;;;;;2.90;1.83;;;;;;;;;;2496214;23;20022;-94
2023/07/16 07:30:09;;;;;;;2.20;2.00;;;;;;;;;;2500295;23;20590;-94
2023/07/16 07:31:09;;;;;;;2.25;1.70;;;;;;;;;;2508262;23;19999;-95
2023/07/16 07:32:10;;;;;;;1.92;1.80;;;;;;;;;;2502325;23;20018;-95
2023/07/16 07:33:13;;;;;;;2.13;1.60;;;;;;;;;;2536337;23;20336;-96
2023/07/16 07:34:22;;;;;;;2.10;1.87;;;;;;;;;;2438543;23;10445657;-94
2023/07/16 07:35:22;;;;;;;1.70;1.60;;;;;;;;;;2521984;23;20638;-93
2023/07/16 07:36:23;;;;;;;2.08;1.88;;;;;;;;;;2536218;23;20001;-94
2023/07/16 07:37:29;;;;;;;1.85;1.75;;;;;;;;;;2532257;23;19998;-95
2023/07/16 07:38:32;;;;;;;2.33;1.52;;;;;;;;;;2532530;23;20455;-95
2023/07/16 07:39:33;;;;;;;2.58;1.42;;;;;;;;;;2520804;23;20456;-95
2023/07/16 07:40:37;;;;;;;2.58;1.65;;;;;;;;;;2520180;23;20005;-95
2023/07/16 07:41:40;;;;;;;2.38;1.80;;;;;;;;;;2520952;23;20002;-95
2023/07/16 07:42:41;;;;;;;2.38;1.80;;;;;;;;;;2536860;23;19998;-95
2023/07/16 07:43:41;;;;;;;4.22;1.90;;;;;;;;;;2549625;23;20024;-95
2023/07/16 07:44:42;;;;;;;2.45;1.75;;;;;;;;;;2532141;23;20348;-95
2023/07/16 07:45:43;;;;;;;4.72;1.90;;;;;;;;;;2539477;23;19998;-94